createdAt,value
2017-09-18T00:01:05.544Z,9.00
2017-09-18T00:03:33.118Z,9.20
2017-09-18T00:06:00.698Z,9.30
2017-09-18T00:08:28.294Z,9.40
2017-09-18T00:10:56.071Z,9.50
2017-09-18T00:13:23.658Z,9.40
2017-09-18T00:15:52.036Z,9.20
2017-09-18T00:18:19.598Z,9.10
2017-09-18T00:20:47.953Z,8.80
2017-09-18T00:23:15.511Z,8.80
2017-09-18T00:25:43.129Z,8.80
2017-09-18T00:28:10.801Z,8.80
2017-09-18T00:30:38.350Z,8.80
2017-09-18T00:33:05.941Z,8.80
2017-09-18T00:35:33.538Z,8.80
2017-09-18T00:38:01.114Z,8.70
2017-09-18T00:40:29.454Z,8.40
2017-09-18T00:42:57.020Z,8.40
2017-09-18T00:45:24.600Z,8.20
2017-09-18T00:47:52.162Z,8.10
2017-09-18T00:50:19.728Z,8.10
2017-09-18T00:52:47.265Z,8.20
2017-09-18T00:55:14.842Z,8.50
2017-09-18T00:57:42.424Z,8.60
2017-09-18T01:00:09.998Z,8.70
2017-09-18T01:02:37.559Z,8.60
2017-09-18T01:05:05.226Z,8.40
2017-09-18T01:07:32.805Z,8.30
2017-09-18T01:10:00.381Z,8.40
2017-09-18T01:12:30.998Z,8.40
2017-09-18T01:14:58.564Z,8.40
2017-09-18T01:17:26.168Z,8.40
2017-09-18T01:19:53.718Z,8.20
2017-09-18T01:22:21.312Z,8.20
2017-09-18T01:24:49.727Z,8.00
2017-09-18T01:27:17.298Z,8.00
2017-09-18T01:29:44.867Z,8.00
2017-09-18T01:32:12.531Z,7.90
2017-09-18T01:34:40.101Z,7.90
2017-09-18T01:37:19.510Z,7.90
2017-09-18T01:39:47.185Z,7.80
2017-09-18T01:42:14.758Z,7.80
2017-09-18T01:44:42.323Z,7.80
2017-09-18T01:47:09.906Z,7.80
2017-09-18T01:49:37.483Z,7.70
2017-09-18T01:52:05.802Z,7.90
2017-09-18T01:54:33.371Z,7.80
2017-09-18T01:57:01.093Z,8.10
2017-09-18T01:59:29.431Z,8.00
2017-09-18T02:01:56.999Z,8.00
2017-09-18T02:04:24.548Z,8.00
2017-09-18T02:06:53.111Z,8.20
2017-09-18T02:09:20.681Z,8.40
2017-09-18T02:11:48.230Z,8.40
2017-09-18T02:14:15.806Z,8.30
2017-09-18T02:16:43.372Z,8.40
2017-09-18T02:19:10.956Z,8.30
2017-09-18T02:21:38.623Z,8.10
2017-09-18T02:24:06.189Z,8.10
2017-09-18T02:26:33.780Z,8.10
2017-09-18T02:29:02.130Z,8.30
2017-09-18T02:31:29.716Z,8.20
2017-09-18T02:33:58.026Z,8.60
2017-09-18T02:36:33.528Z,8.60
2017-09-18T02:39:01.854Z,9.00
2017-09-18T02:41:29.440Z,9.00
2017-09-18T02:43:56.998Z,9.10
2017-09-18T02:46:24.571Z,9.20
2017-09-18T02:48:52.135Z,9.20
2017-09-18T02:51:19.794Z,9.20
2017-09-18T02:53:47.374Z,9.20
2017-09-18T02:56:15.712Z,9.20
2017-09-18T02:58:43.295Z,9.20
2017-09-18T03:01:10.868Z,9.30
2017-09-18T03:03:39.215Z,9.30
2017-09-18T03:06:44.748Z,9.30
2017-09-18T03:09:12.330Z,9.30
2017-09-18T03:11:39.887Z,9.40
2017-09-18T03:14:07.495Z,9.40
2017-09-18T03:16:35.874Z,9.40
2017-09-18T03:19:04.390Z,9.40
2017-09-18T03:21:31.963Z,9.40
2017-09-18T03:23:59.528Z,9.50
2017-09-18T03:26:27.289Z,9.50
2017-09-18T03:28:54.839Z,9.50
2017-09-18T03:31:22.422Z,9.50
2017-09-18T03:33:49.995Z,9.60
2017-09-18T03:36:17.596Z,9.60
2017-09-18T03:38:45.924Z,9.70
2017-09-18T03:41:13.535Z,9.70
2017-09-18T03:43:41.853Z,9.80
2017-09-18T03:46:09.414Z,9.70
2017-09-18T03:48:37.012Z,9.80
2017-09-18T03:51:04.558Z,9.80
2017-09-18T03:53:32.110Z,9.80
2017-09-18T03:55:59.839Z,9.80
2017-09-18T03:58:27.455Z,9.70
2017-09-18T04:00:55.033Z,9.70
2017-09-18T04:03:22.597Z,9.70
2017-09-18T04:05:50.203Z,9.60
2017-09-18T04:08:18.568Z,9.50
2017-09-18T04:10:46.142Z,9.50
2017-09-18T04:13:14.516Z,9.50
2017-09-18T04:15:42.069Z,9.50
2017-09-18T04:18:10.419Z,9.40
2017-09-18T04:20:37.971Z,9.30
2017-09-18T04:23:05.518Z,9.30
2017-09-18T04:25:33.102Z,9.30
2017-09-18T04:28:00.670Z,9.30
2017-09-18T04:30:28.265Z,9.20
2017-09-18T04:32:56.713Z,9.10
2017-09-18T04:35:24.284Z,9.10
2017-09-18T04:37:51.860Z,9.10
2017-09-18T04:40:19.418Z,9.10
2017-09-18T04:42:47.850Z,8.90
2017-09-18T04:45:15.422Z,8.90
2017-09-18T04:47:43.003Z,8.90
2017-09-18T04:50:10.579Z,8.90
2017-09-18T04:52:38.166Z,9.00
2017-09-18T04:55:05.733Z,9.10
2017-09-18T04:57:34.050Z,9.10
2017-09-18T05:00:01.646Z,9.10
2017-09-18T05:02:29.238Z,9.20
2017-09-18T05:04:57.616Z,9.30
2017-09-18T05:07:25.972Z,9.40
2017-09-18T05:09:53.542Z,9.30
2017-09-18T05:12:21.269Z,9.40
2017-09-18T05:14:48.852Z,9.40
2017-09-18T05:17:16.443Z,9.50
2017-09-18T05:19:44.785Z,9.50
2017-09-18T05:22:12.379Z,9.40
2017-09-18T05:24:39.965Z,9.50
2017-09-18T05:27:07.527Z,9.50
2017-09-18T05:29:35.112Z,9.50
2017-09-18T05:32:02.691Z,9.50
2017-09-18T05:34:30.286Z,9.60
2017-09-18T05:36:58.640Z,9.70
2017-09-18T05:39:26.211Z,9.70
2017-09-18T05:41:53.787Z,9.70
2017-09-18T05:44:22.111Z,9.80
2017-09-18T05:46:49.706Z,9.80
2017-09-18T05:49:17.271Z,9.90
2017-09-18T05:51:44.846Z,9.90
2017-09-18T05:54:12.433Z,9.90
2017-09-18T05:56:39.996Z,10.00
2017-09-18T05:59:07.556Z,10.00
2017-09-18T06:01:35.473Z,10.00
2017-09-18T06:04:03.034Z,10.10
2017-09-18T06:06:30.640Z,10.10
2017-09-18T06:08:58.994Z,10.20
2017-09-18T06:11:26.567Z,10.20
2017-09-18T06:13:54.166Z,10.30
2017-09-18T06:16:21.934Z,10.30
2017-09-18T06:18:49.503Z,10.30
2017-09-18T06:21:17.071Z,10.30
2017-09-18T06:23:44.658Z,10.40
2017-09-18T06:26:12.218Z,10.40
2017-09-18T06:28:39.777Z,10.40
2017-09-18T06:31:07.373Z,10.50
2017-09-18T06:33:34.959Z,10.50
2017-09-18T06:36:03.340Z,10.50
2017-09-18T06:38:31.675Z,10.60
2017-09-18T06:40:59.251Z,10.60
2017-09-18T06:43:27.778Z,10.70
2017-09-18T06:45:55.344Z,10.60
2017-09-18T06:48:22.930Z,10.70
2017-09-18T06:50:50.506Z,10.80
2017-09-18T06:53:18.103Z,10.90
2017-09-18T06:55:46.436Z,11.10
2017-09-18T06:58:14.015Z,11.10
2017-09-18T07:00:41.573Z,11.20
2017-09-18T07:03:09.144Z,11.40
2017-09-18T07:05:36.727Z,11.60
2017-09-18T07:08:05.053Z,12.10
2017-09-18T07:10:32.773Z,12.10
2017-09-18T07:13:01.133Z,12.60
2017-09-18T07:15:28.837Z,12.50
2017-09-18T07:17:56.445Z,12.50
2017-09-18T07:20:24.261Z,12.20
2017-09-18T07:22:51.846Z,12.00
2017-09-18T07:25:19.419Z,12.00
2017-09-18T07:27:47.008Z,12.20
2017-09-18T07:30:14.562Z,12.40
2017-09-18T07:32:42.404Z,12.60
2017-09-18T07:35:09.985Z,12.50
2017-09-18T07:37:37.595Z,12.70
2017-09-18T07:40:05.179Z,12.90
2017-09-18T07:42:32.762Z,13.20
2017-09-18T07:45:00.353Z,13.70
2017-09-18T07:47:28.687Z,14.40
2017-09-18T07:49:56.473Z,14.40
2017-09-18T07:52:24.050Z,14.40
2017-09-18T07:54:51.689Z,14.20
2017-09-18T07:57:19.271Z,14.00
2017-09-18T07:59:46.846Z,13.70
2017-09-18T08:02:15.167Z,13.70
2017-09-18T08:04:42.808Z,13.60
2017-09-18T08:07:11.132Z,13.70
2017-09-18T08:09:38.958Z,13.70
2017-09-18T08:12:06.652Z,13.70
2017-09-18T08:14:34.394Z,13.80
2017-09-18T08:17:02.869Z,13.60
2017-09-18T08:19:31.345Z,13.70
2017-09-18T08:21:59.674Z,13.90
2017-09-18T08:24:27.253Z,13.90
2017-09-18T08:26:54.811Z,14.20
2017-09-18T08:29:22.708Z,14.40
2017-09-18T08:31:51.210Z,15.00
2017-09-18T08:34:18.801Z,14.90
2017-09-18T08:36:47.778Z,15.50
2017-09-18T08:39:15.526Z,16.30
2017-09-18T08:41:43.259Z,16.50
2017-09-18T08:44:10.882Z,16.50
2017-09-18T08:46:39.261Z,15.90
2017-09-18T08:49:07.788Z,15.50
2017-09-18T08:51:35.501Z,15.50
2017-09-18T08:54:03.154Z,15.20
2017-09-18T08:56:31.522Z,14.50
2017-09-18T08:58:59.207Z,14.50
2017-09-18T09:01:27.539Z,13.50
2017-09-18T09:03:55.237Z,13.50
2017-09-18T09:06:22.940Z,13.40
2017-09-18T09:08:50.564Z,13.50
2017-09-18T09:11:18.206Z,13.60
2017-09-18T09:13:45.798Z,13.70
2017-09-18T09:16:14.163Z,13.60
2017-09-18T09:18:41.760Z,13.60
2017-09-18T09:21:10.142Z,13.60
2017-09-18T09:23:38.815Z,13.60
2017-09-18T09:26:07.213Z,13.60
2017-09-18T09:28:34.838Z,13.50
2017-09-18T09:31:02.527Z,13.60
2017-09-18T09:33:30.856Z,13.30
2017-09-18T09:35:58.547Z,13.30
2017-09-18T09:38:26.131Z,13.10
2017-09-18T10:18:42.443Z,13.10
2017-09-18T10:21:10.040Z,13.00
2017-09-18T10:23:37.647Z,13.00
2017-09-18T10:26:05.250Z,13.10
2017-09-18T10:28:32.848Z,13.10
2017-09-18T10:31:01.194Z,13.50
2017-09-18T10:33:28.756Z,13.50
2017-09-18T10:35:56.430Z,13.70
2017-09-18T10:38:25.074Z,13.80
2017-09-18T10:40:52.685Z,13.60
2017-09-18T10:43:20.269Z,13.40
2017-09-18T10:45:47.829Z,13.20
2017-09-18T10:48:16.190Z,13.10
2017-09-18T10:50:43.837Z,13.00
2017-09-18T10:53:11.406Z,13.20
2017-09-18T10:55:39.141Z,13.30
2017-09-18T10:58:06.751Z,13.50
2017-09-18T11:00:35.097Z,13.60
2017-09-18T11:03:03.676Z,13.60
2017-09-18T11:05:31.413Z,13.60
2017-09-18T11:07:59.294Z,13.40
2017-09-18T11:10:27.044Z,13.30
2017-09-18T11:12:55.459Z,13.40
2017-09-18T11:15:23.038Z,13.40
2017-09-18T11:17:50.681Z,14.20
2017-09-18T11:20:18.507Z,15.30
2017-09-18T11:22:46.863Z,17.80
2017-09-18T11:25:14.420Z,17.70
2017-09-18T11:27:42.059Z,18.20
2017-09-18T11:30:09.646Z,18.80
2017-09-18T11:32:37.205Z,18.70
2017-09-18T11:35:04.790Z,17.90
2017-09-18T11:37:33.382Z,16.60
2017-09-18T11:40:01.728Z,16.20
2017-09-18T11:42:29.332Z,16.10
2017-09-18T11:44:57.743Z,15.60
2017-09-18T11:47:25.316Z,15.60
2017-09-18T11:49:52.859Z,15.30
2017-09-18T11:52:20.540Z,14.80
2017-09-18T11:54:48.125Z,14.50
2017-09-18T11:57:16.460Z,14.10
2017-09-18T11:59:44.056Z,14.10
2017-09-18T12:02:11.645Z,13.90
2017-09-18T12:04:40.651Z,13.70
2017-09-18T12:07:08.987Z,13.60
2017-09-18T12:09:36.584Z,13.60
2017-09-18T12:12:05.035Z,13.80
2017-09-18T12:14:32.586Z,13.80
2017-09-18T12:17:00.171Z,14.10
2017-09-18T12:19:28.503Z,16.50
2017-09-18T12:21:56.086Z,16.50
2017-09-18T12:24:23.667Z,17.20
2017-09-18T12:26:51.235Z,17.60
2017-09-18T12:29:18.817Z,16.90
2017-09-18T12:31:47.187Z,16.10
2017-09-18T12:34:14.932Z,16.10
2017-09-18T12:36:42.544Z,16.00
2017-09-18T12:39:10.125Z,16.00
2017-09-18T12:41:37.742Z,16.10
2017-09-18T12:44:05.334Z,17.20
2017-09-18T12:46:32.958Z,17.70
2017-09-18T12:49:00.564Z,18.00
2017-09-18T12:51:28.154Z,18.80
2017-09-18T12:53:55.752Z,19.80
2017-09-18T12:56:24.097Z,20.20
2017-09-18T12:58:51.683Z,20.20
2017-09-18T13:01:20.017Z,18.10
2017-09-18T13:03:47.630Z,18.00
2017-09-18T13:06:15.345Z,17.90
2017-09-18T13:08:42.901Z,18.00
2017-09-18T13:11:10.603Z,17.60
2017-09-18T13:13:38.306Z,17.30
2017-09-18T13:16:06.671Z,16.30
2017-09-18T13:18:34.235Z,16.30
2017-09-18T13:21:02.595Z,16.00
2017-09-18T13:23:30.204Z,15.90
2017-09-18T13:25:57.813Z,15.60
2017-09-18T13:28:25.407Z,15.30
2017-09-18T13:30:53.784Z,15.10
2017-09-18T13:33:21.368Z,15.10
2017-09-18T13:35:49.728Z,15.30
2017-09-18T13:38:17.295Z,15.30
2017-09-18T13:40:44.863Z,15.30
2017-09-18T13:43:13.242Z,15.90
2017-09-18T13:45:41.593Z,15.70
2017-09-18T13:48:09.199Z,15.60
2017-09-18T13:50:37.649Z,15.70
2017-09-18T13:53:05.995Z,15.70
2017-09-18T13:55:33.578Z,15.70
2017-09-18T13:58:01.155Z,15.70
2017-09-18T14:00:28.760Z,15.70
2017-09-18T14:02:56.366Z,15.60
2017-09-18T14:05:23.965Z,15.70
2017-09-18T14:07:52.299Z,15.90
2017-09-18T14:10:19.898Z,15.90
2017-09-18T14:12:48.251Z,15.80
2017-09-18T14:15:15.927Z,15.70
2017-09-18T14:17:44.536Z,15.20
2017-09-18T14:20:12.233Z,15.20
2017-09-18T14:22:40.624Z,15.30
2017-09-18T14:25:08.346Z,15.30
2017-09-18T14:27:36.724Z,15.90
2017-09-18T14:30:05.130Z,15.90
2017-09-18T14:32:32.726Z,15.90
2017-09-18T14:35:00.339Z,15.80
2017-09-18T14:37:28.850Z,15.40
2017-09-18T14:39:56.469Z,15.40
2017-09-18T14:42:24.070Z,15.50
2017-09-18T14:44:51.692Z,15.40
2017-09-18T14:47:20.039Z,15.00
2017-09-18T14:49:47.623Z,15.00
2017-09-18T14:52:15.995Z,15.00
2017-09-18T14:54:43.604Z,15.00
2017-09-18T14:57:11.172Z,15.10
2017-09-18T14:59:38.772Z,15.10
2017-09-18T15:02:06.353Z,14.80
2017-09-18T15:04:33.951Z,14.80
2017-09-18T15:07:01.682Z,14.90
2017-09-18T15:09:29.263Z,14.80
2017-09-18T15:11:57.646Z,14.80
2017-09-18T15:14:26.250Z,14.90
2017-09-18T15:16:53.831Z,14.90
2017-09-18T15:19:21.414Z,14.80
2017-09-18T15:21:49.009Z,14.80
2017-09-18T15:24:16.571Z,14.90
2017-09-18T15:26:44.918Z,14.80
2017-09-18T15:29:12.486Z,14.80
2017-09-18T15:31:40.220Z,14.70
2017-09-18T15:34:07.804Z,14.60
2017-09-18T15:36:35.391Z,14.50
2017-09-18T15:39:03.735Z,14.30
2017-09-18T15:41:31.340Z,14.30
2017-09-18T15:43:58.931Z,14.00
2017-09-18T15:46:27.270Z,13.40
2017-09-18T15:48:54.850Z,13.40
2017-09-18T15:51:23.242Z,13.00
2017-09-18T15:53:51.656Z,12.90
2017-09-18T15:56:19.236Z,12.80
2017-09-18T15:58:46.823Z,12.80
2017-09-18T16:01:14.397Z,12.70
2017-09-18T16:03:42.759Z,12.70
2017-09-18T16:06:10.367Z,12.70
2017-09-18T16:08:37.960Z,12.70
2017-09-18T16:11:05.547Z,12.70
2017-09-18T16:13:33.107Z,12.70
2017-09-18T16:16:00.727Z,12.70
2017-09-18T16:18:28.334Z,12.60
2017-09-18T16:20:55.920Z,12.60
2017-09-18T16:23:24.317Z,12.60
2017-09-18T16:25:51.894Z,12.60
2017-09-18T16:28:19.485Z,12.50
2017-09-18T16:30:47.071Z,12.40
2017-09-18T16:33:15.532Z,12.30
2017-09-18T16:50:12.588Z,12.10
2017-09-18T16:55:34.015Z,12.00
2017-09-18T16:58:01.819Z,11.90
2017-09-18T17:00:30.175Z,11.90
2017-09-18T17:02:59.020Z,11.80
2017-09-18T17:05:26.596Z,11.80
2017-09-18T17:07:54.175Z,11.80
2017-09-18T17:10:21.792Z,11.80
2017-09-18T17:12:49.373Z,11.80
2017-09-18T17:15:16.977Z,11.80
2017-09-18T17:17:44.693Z,11.80
2017-09-18T17:20:12.414Z,11.70
2017-09-18T17:22:39.987Z,11.80
2017-09-18T17:25:08.510Z,11.70
2017-09-18T17:27:36.099Z,11.70
2017-09-18T17:30:04.015Z,11.70
2017-09-18T17:32:32.399Z,11.70
2017-09-18T17:35:00.249Z,11.70
2017-09-18T17:37:28.695Z,11.70
2017-09-18T17:39:56.484Z,11.70
2017-09-18T17:42:24.124Z,11.60
2017-09-18T17:44:52.021Z,11.70
2017-09-18T17:47:19.664Z,11.60
2017-09-18T17:49:47.261Z,11.60
2017-09-18T17:52:15.642Z,11.60
2017-09-18T17:54:44.003Z,11.70
2017-09-18T17:57:11.629Z,11.70
2017-09-18T17:59:39.204Z,11.70
2017-09-18T18:02:06.784Z,11.70
2017-09-18T18:04:34.611Z,11.60
2017-09-18T18:07:02.199Z,11.70
2017-09-18T18:09:29.783Z,11.70
2017-09-18T18:11:58.494Z,11.70
2017-09-18T18:14:26.862Z,11.60
2017-09-18T18:16:55.249Z,11.60
2017-09-18T18:19:23.576Z,11.60
2017-09-18T18:21:51.172Z,11.60
2017-09-18T18:24:18.754Z,11.70
2017-09-18T18:29:39.451Z,11.70
2017-09-18T18:32:07.046Z,11.60
2017-09-18T18:34:35.707Z,11.60
2017-09-18T18:37:04.142Z,11.60
2017-09-18T18:39:32.551Z,11.60
2017-09-18T18:42:00.287Z,11.60
2017-09-18T18:44:28.389Z,11.70
2017-09-18T18:46:56.056Z,11.70
2017-09-18T18:49:23.777Z,11.70
2017-09-18T18:51:52.156Z,11.60
2017-09-18T18:54:20.516Z,11.60
2017-09-18T19:11:13.633Z,11.70
2017-09-18T19:13:41.203Z,11.60
2017-09-18T19:16:08.868Z,11.60
2017-09-18T19:18:36.466Z,11.60
2017-09-18T19:21:04.838Z,11.60
2017-09-18T19:23:32.415Z,11.60
2017-09-18T19:26:00.011Z,11.60
2017-09-18T19:28:27.818Z,11.60
2017-09-18T19:30:55.410Z,11.60
2017-09-18T19:33:23.358Z,11.50
2017-09-18T19:35:51.781Z,11.60
2017-09-18T19:38:20.111Z,11.50
2017-09-18T19:40:47.697Z,11.50
2017-09-18T19:43:15.536Z,11.50
2017-09-18T19:45:43.096Z,11.60
2017-09-18T19:48:10.711Z,11.60
2017-09-18T19:50:39.084Z,11.50
2017-09-18T19:53:07.443Z,11.60
2017-09-18T19:55:39.006Z,11.60
2017-09-18T19:58:06.601Z,11.60
2017-09-18T20:00:35.150Z,11.60
2017-09-18T20:03:02.785Z,11.60
2017-09-18T20:05:31.363Z,11.60
2017-09-18T20:07:58.934Z,11.60
2017-09-18T20:10:26.763Z,11.60
2017-09-18T20:12:54.328Z,11.60
2017-09-18T20:15:21.927Z,11.60
2017-09-18T20:17:49.528Z,11.50
2017-09-18T20:20:17.154Z,11.60
2017-09-18T20:22:44.793Z,11.60
2017-09-18T20:25:12.606Z,11.60
2017-09-18T20:27:40.550Z,11.60
2017-09-18T20:30:08.348Z,11.60
2017-09-18T20:32:36.938Z,11.60
2017-09-18T20:35:04.699Z,11.60
2017-09-18T20:37:33.184Z,11.60
2017-09-18T20:40:00.936Z,11.60
2017-09-18T20:42:29.363Z,11.50
2017-09-18T20:44:57.021Z,11.50
2017-09-18T20:47:24.662Z,11.50
2017-09-18T20:49:53.048Z,11.50
2017-09-18T20:52:20.696Z,11.50
2017-09-18T20:54:49.048Z,11.50
2017-09-18T20:57:17.452Z,11.60
2017-09-18T20:59:45.890Z,11.60
2017-09-18T21:02:13.497Z,11.50
2017-09-18T21:04:42.011Z,11.60
2017-09-18T21:07:09.639Z,11.60
2017-09-18T21:09:37.242Z,11.60
2017-09-18T21:12:13.907Z,11.60
2017-09-18T21:14:41.499Z,11.60
2017-09-18T21:17:09.132Z,11.60
2017-09-18T21:19:36.756Z,11.60
2017-09-18T21:22:04.346Z,11.50
2017-09-18T21:24:31.985Z,11.60
2017-09-18T21:26:59.553Z,11.60
2017-09-18T21:29:27.914Z,11.60
2017-09-18T21:31:55.576Z,11.60
2017-09-18T21:34:23.192Z,11.60
2017-09-18T21:36:50.782Z,11.50
2017-09-18T21:39:18.416Z,11.50
2017-09-18T21:41:46.023Z,11.50
2017-09-18T21:44:13.677Z,11.50
2017-09-18T21:46:41.345Z,11.50
2017-09-18T21:49:08.901Z,11.40
2017-09-18T21:51:36.486Z,11.50
2017-09-18T21:54:04.837Z,11.40
2017-09-18T21:56:32.535Z,11.40
2017-09-18T21:59:00.149Z,11.40
2017-09-18T22:01:27.718Z,11.40
2017-09-18T22:03:55.425Z,11.40
2017-09-18T22:06:23.772Z,11.40
2017-09-18T22:08:51.478Z,11.40
2017-09-18T22:11:19.172Z,11.40
2017-09-18T22:13:46.748Z,11.40
2017-09-18T22:16:14.319Z,11.50
2017-09-18T22:18:41.908Z,11.50
2017-09-18T22:21:10.258Z,11.50
2017-09-18T22:23:37.850Z,11.50
2017-09-18T22:26:05.602Z,11.50
2017-09-18T22:28:33.176Z,11.50
2017-09-18T22:31:00.752Z,11.50
2017-09-18T22:33:29.389Z,11.50
2017-09-18T22:35:57.940Z,11.50
2017-09-18T22:38:25.579Z,11.50
2017-09-18T22:40:53.947Z,11.50
2017-09-18T22:43:21.530Z,11.50
2017-09-18T22:45:49.121Z,11.50
2017-09-18T22:48:16.688Z,11.50
2017-09-18T22:50:44.274Z,11.50
2017-09-18T22:53:11.883Z,11.50
2017-09-18T22:55:39.454Z,11.50
2017-09-18T22:58:07.064Z,11.50
2017-09-18T23:00:34.664Z,11.50
2017-09-18T23:03:02.266Z,11.50
2017-09-18T23:05:29.826Z,11.50
2017-09-18T23:07:58.067Z,11.50
2017-09-18T23:10:25.648Z,11.50
2017-09-18T23:12:53.226Z,11.50
2017-09-18T23:15:20.823Z,11.50
2017-09-18T23:17:49.174Z,11.50
2017-09-18T23:20:16.782Z,11.50
2017-09-18T23:22:45.131Z,11.60
2017-09-18T23:25:12.713Z,11.50
2017-09-18T23:27:41.137Z,11.60
2017-09-18T23:30:08.724Z,11.60
2017-09-18T23:32:36.287Z,11.60
2017-09-18T23:35:03.893Z,11.60
2017-09-18T23:37:32.227Z,11.60
2017-09-18T23:39:59.818Z,11.60
2017-09-18T23:42:28.163Z,11.60
2017-09-18T23:44:55.831Z,11.60
2017-09-18T23:47:23.436Z,11.70
2017-09-18T23:49:51.786Z,11.60
2017-09-18T23:52:19.339Z,11.60
2017-09-18T23:54:46.894Z,11.60
2017-09-18T23:57:14.594Z,11.60
2017-09-18T23:59:42.945Z,11.60
